Time,TemperatureF,DewpointF,PressureIn,WindDirection,WindDirectionDegrees,WindSpeedMPH,WindSpeedGustMPH,Humidity,HourlyPrecipIn,Conditions,Clouds,dailyrainin,SoftwareType,DateUTC
2013-08-19 07:16:00,67.0,66.1,30.04,North,360,0.0,0.0,97,0.00,,,0.36,Wunderground v.1.15,2013-08-19 11:16:00,
2013-08-19 07:20:00,67.0,66.1,30.03,North,360,0.0,0.0,97,0.00,,,0.36,Wunderground v.1.15,2013-08-19 11:20:00,
2013-08-19 07:25:00,67.0,66.1,30.04,North,360,0.0,0.0,97,0.00,,,0.36,Wunderground v.1.15,2013-08-19 11:25:00,
2013-08-19 07:30:00,67.0,66.1,30.04,North,360,0.0,0.0,97,0.00,,,0.36,Wunderground v.1.15,2013-08-19 11:30:00,
2013-08-19 07:36:00,67.0,66.1,30.03,North,360,0.0,0.0,97,0.00,,,0.36,Wunderground v.1.15,2013-08-19 11:36:00,
2013-08-19 07:45:00,67.0,66.1,30.03,North,360,0.0,0.0,97,0.00,,,0.36,Wunderground v.1.15,2013-08-19 11:45:00,
2013-08-19 07:56:00,67.0,66.1,30.03,North,360,0.0,0.0,97,0.00,,,0.36,Wunderground v.1.15,2013-08-19 11:56:00,
2013-08-19 08:01:00,67.1,66.2,30.03,North,360,0.0,0.0,97,0.00,,,0.36,Wunderground v.1.15,2013-08-19 12:01:00,
2013-08-19 08:11:00,67.2,66.3,30.03,North,360,0.0,0.0,97,0.00,,,0.36,Wunderground v.1.15,2013-08-19 12:11:00,
2013-08-19 08:21:00,67.1,66.2,30.02,North,360,0.0,0.0,97,0.00,,,0.36,Wunderground v.1.15,2013-08-19 12:21:00,
2013-08-19 08:31:00,67.2,66.3,30.03,North,360,0.0,0.0,97,0.00,,,0.36,Wunderground v.1.15,2013-08-19 12:31:00,
2013-08-19 08:40:00,67.2,66.3,30.04,North,360,0.0,0.0,97,0.00,,,0.36,Wunderground v.1.15,2013-08-19 12:40:00,
2013-08-19 08:46:00,67.2,66.3,30.04,North,360,0.0,0.0,97,0.00,,,0.36,Wunderground v.1.15,2013-08-19 12:46:00,
2013-08-19 08:55:00,67.4,66.5,30.04,North,360,0.0,0.0,97,0.00,,,0.36,Wunderground v.1.15,2013-08-19 12:55:00,
2013-08-19 09:01:00,67.5,66.6,30.04,North,360,0.0,0.0,97,0.00,,,0.37,Wunderground v.1.15,2013-08-19 13:01:00,
2013-08-19 09:10:00,67.6,66.7,30.02,North,360,0.0,0.0,97,0.00,,,0.37,Wunderground v.1.15,2013-08-19 13:10:00,
2013-08-19 09:16:00,67.5,66.6,30.03,North,360,0.0,0.0,97,0.00,,,0.37,Wunderground v.1.15,2013-08-19 13:16:00,
2013-08-19 09:25:00,67.6,66.7,30.02,North,360,0.0,0.0,97,0.00,,,0.37,Wunderground v.1.15,2013-08-19 13:25:00,
2013-08-19 09:36:00,67.7,66.8,30.04,North,360,0.0,0.0,97,0.00,,,0.37,Wunderground v.1.15,2013-08-19 13:36:00,
2013-08-19 09:46:00,67.8,66.9,30.03,North,360,0.0,0.0,97,0.00,,,0.37,Wunderground v.1.15,2013-08-19 13:46:00,
2013-08-19 09:56:00,67.8,66.9,30.02,North,360,0.0,0.0,97,0.00,,,0.38,Wunderground v.1.15,2013-08-19 13:56:00,
2013-08-19 10:01:00,67.9,67.0,30.03,North,360,0.0,0.0,97,0.00,,,0.38,Wunderground v.1.15,2013-08-19 14:01:00,
2013-08-19 10:11:00,67.8,66.9,30.03,North,360,0.0,0.0,97,0.00,,,0.38,Wunderground v.1.15,2013-08-19 14:11:00,
2013-08-19 10:20:00,67.9,67.0,30.04,North,360,0.0,0.0,97,0.00,,,0.38,Wunderground v.1.15,2013-08-19 14:20:00,
2013-08-19 10:26:00,68.0,67.1,30.04,North,360,0.0,0.0,97,0.00,,,0.38,Wunderground v.1.15,2013-08-19 14:26:00,
2013-08-19 10:35:00,68.1,67.2,30.05,North,360,0.0,0.0,97,0.00,,,0.38,Wunderground v.1.15,2013-08-19 14:35:00,
2013-08-19 10:45:00,68.3,67.4,30.05,North,360,0.0,0.0,97,0.00,,,0.39,Wunderground v.1.15,2013-08-19 14:45:00,
2013-08-19 10:51:00,68.1,66.9,30.05,North,360,0.0,0.0,96,0.00,,,0.39,Wunderground v.1.15,2013-08-19 14:51:00,
2013-08-19 11:01:00,68.2,67.3,30.06,North,360,0.0,0.0,97,0.00,,,0.39,Wunderground v.1.15,2013-08-19 15:01:00,
2013-08-19 11:10:00,68.5,67.6,30.06,North,360,0.0,0.0,97,0.00,,,0.39,Wunderground v.1.15,2013-08-19 15:10:00,
2013-08-19 11:21:00,68.6,67.4,30.07,North,360,0.0,0.0,96,0.00,,,0.39,Wunderground v.1.15,2013-08-19 15:21:00,
2013-08-19 11:31:00,68.7,67.5,30.06,North,350,0.0,0.0,96,0.00,,,0.39,Wunderground v.1.15,2013-08-19 15:31:00,
2013-08-19 11:40:00,68.8,67.3,30.06,SSW,195,0.0,0.0,95,0.00,,,0.39,Wunderground v.1.15,2013-08-19 15:40:00,
2013-08-19 11:51:00,69.0,67.5,30.07,SSW,195,0.0,0.0,95,0.00,,,0.39,Wunderground v.1.15,2013-08-19 15:51:00,
2013-08-19 12:01:00,69.0,67.2,30.07,SSW,195,0.0,0.0,94,0.00,,,0.39,Wunderground v.1.15,2013-08-19 16:01:00,
2013-08-19 12:10:00,69.3,67.5,30.06,SSW,195,0.0,0.0,94,0.00,,,0.39,Wunderground v.1.15,2013-08-19 16:10:00,
2013-08-19 12:21:00,69.6,67.8,30.06,SSW,194,0.0,0.0,94,0.00,,,0.39,Wunderground v.1.15,2013-08-19 16:21:00,
2013-08-19 12:26:00,69.6,67.5,30.06,SSW,194,0.0,0.0,93,0.00,,,0.39,Wunderground v.1.15,2013-08-19 16:26:00,
2013-08-19 12:35:00,69.7,67.3,30.06,SSW,194,0.0,0.0,92,0.00,,,0.39,Wunderground v.1.15,2013-08-19 16:35:00,
2013-08-19 12:46:00,70.4,68.0,30.06,SSW,197,0.0,0.0,92,0.00,,,0.39,Wunderground v.1.15,2013-08-19 16:46:00,
2013-08-19 12:55:00,71.0,68.6,30.05,SSW,198,0.0,0.0,92,0.00,,,0.39,Wunderground v.1.15,2013-08-19 16:55:00,
2013-08-19 13:01:00,71.3,68.2,30.05,SSW,206,0.0,0.0,90,0.00,,,0.39,Wunderground v.1.15,2013-08-19 17:01:00,
2013-08-19 13:11:00,71.4,68.0,30.05,SW,230,0.0,0.0,89,0.00,,,0.39,Wunderground v.1.15,2013-08-19 17:11:00,
2013-08-19 13:16:00,71.6,68.5,30.05,SW,234,0.0,0.0,90,0.00,,,0.39,Wunderground v.1.15,2013-08-19 17:16:00,
2013-08-19 13:26:00,71.7,68.3,30.05,SW,221,0.0,0.0,89,0.00,,,0.39,Wunderground v.1.15,2013-08-19 17:26:00,
2013-08-19 13:36:00,71.8,68.4,30.05,SW,219,0.0,0.0,89,0.00,,,0.39,Wunderground v.1.15,2013-08-19 17:36:00,
2013-08-19 13:45:00,71.8,68.1,30.05,SW,215,0.0,0.0,88,0.00,,,0.39,Wunderground v.1.15,2013-08-19 17:45:00,
2013-08-19 13:51:00,72.0,68.2,30.05,SW,214,0.0,0.0,88,0.00,,,0.39,Wunderground v.1.15,2013-08-19 17:51:00,
2013-08-19 14:01:00,72.2,68.4,30.05,SSW,208,0.0,0.0,88,0.00,,,0.39,Wunderground v.1.15,2013-08-19 18:01:00,
2013-08-19 14:11:00,72.9,68.1,30.04,SW,226,0.0,0.0,85,0.00,,,0.39,Wunderground v.1.15,2013-08-19 18:11:00,
2013-08-19 14:21:00,73.5,66.9,30.04,NW,307,0.0,0.0,80,0.00,,,0.39,Wunderground v.1.15,2013-08-19 18:21:00,
2013-08-19 14:30:00,74.1,67.9,30.03,West,275,0.0,0.0,81,0.00,,,0.39,Wunderground v.1.15,2013-08-19 18:30:00,
2013-08-19 14:40:00,74.0,67.4,30.03,SW,234,0.0,0.0,80,0.00,,,0.39,Wunderground v.1.15,2013-08-19 18:40:00,
2013-08-19 14:46:00,74.0,68.2,30.03,NW,306,0.0,0.0,82,0.00,,,0.39,Wunderground v.1.15,2013-08-19 18:46:00,
2013-08-19 14:55:00,73.7,67.5,30.03,SW,215,1.0,7.0,81,0.00,,,0.39,Wunderground v.1.15,2013-08-19 18:55:00,
2013-08-19 15:01:00,73.5,66.9,30.02,SSW,206,1.0,1.0,80,0.00,,,0.39,Wunderground v.1.15,2013-08-19 19:01:00,
2013-08-19 15:10:00,73.5,67.3,30.02,SSW,211,1.0,1.0,81,0.00,,,0.39,Wunderground v.1.15,2013-08-19 19:10:00,
2013-08-19 15:16:00,73.7,67.1,30.02,SSW,212,1.0,1.0,80,0.00,,,0.39,Wunderground v.1.15,2013-08-19 19:16:00,
2013-08-19 15:25:00,73.9,67.3,30.01,SW,227,0.0,0.0,80,0.00,,,0.39,Wunderground v.1.15,2013-08-19 19:25:00,
2013-08-19 15:36:00,74.2,67.3,30.01,West,273,0.0,0.0,79,0.00,,,0.39,Wunderground v.1.15,2013-08-19 19:36:00,
2013-08-19 15:45:00,74.7,68.1,30.01,West,279,0.0,0.0,80,0.00,,,0.39,Wunderground v.1.15,2013-08-19 19:45:00,
2013-08-19 15:56:00,75.1,68.5,30.01,West,273,0.0,0.0,80,0.00,,,0.39,Wunderground v.1.15,2013-08-19 19:56:00,
2013-08-19 16:01:00,75.0,68.4,30.01,SW,231,0.0,0.0,80,0.00,,,0.39,Wunderground v.1.15,2013-08-19 20:01:00,
2013-08-19 16:11:00,74.9,69.0,30.00,SW,231,0.0,0.0,82,0.00,,,0.39,Wunderground v.1.15,2013-08-19 20:11:00,
2013-08-19 16:20:00,74.8,68.6,30.00,SW,231,0.0,0.0,81,0.00,,,0.39,Wunderground v.1.15,2013-08-19 20:20:00,
2013-08-19 16:26:00,74.6,67.7,30.00,SW,231,0.0,0.0,79,0.00,,,0.39,Wunderground v.1.15,2013-08-19 20:26:00,
2013-08-19 16:35:00,74.7,68.5,30.00,SW,231,0.0,0.0,81,0.00,,,0.39,Wunderground v.1.15,2013-08-19 20:35:00,
2013-08-19 16:46:00,74.8,68.9,29.99,SW,229,0.0,0.0,82,0.00,,,0.39,Wunderground v.1.15,2013-08-19 20:46:00,
2013-08-19 16:51:00,74.9,68.7,29.99,SW,229,0.0,0.0,81,0.00,,,0.39,Wunderground v.1.15,2013-08-19 20:51:00,
2013-08-19 17:01:00,74.9,68.3,29.99,SW,228,0.0,0.0,80,0.00,,,0.39,Wunderground v.1.15,2013-08-19 21:01:00,
2013-08-19 17:10:00,74.9,68.3,29.99,SW,228,0.0,0.0,80,0.00,,,0.39,Wunderground v.1.15,2013-08-19 21:10:00,
2013-08-19 17:21:00,75.0,69.1,29.99,SW,228,0.0,0.0,82,0.00,,,0.39,Wunderground v.1.15,2013-08-19 21:21:00,
2013-08-19 17:30:00,75.3,68.3,29.99,SW,236,0.0,0.0,79,0.00,,,0.40,Wunderground v.1.15,2013-08-19 21:30:00,
2013-08-19 17:40:00,75.4,68.8,29.99,SW,236,0.0,0.0,80,0.00,,,0.40,Wunderground v.1.15,2013-08-19 21:40:00,
2013-08-19 17:46:00,75.3,68.3,29.99,SW,236,0.0,0.0,79,0.00,,,0.40,Wunderground v.1.15,2013-08-19 21:46:00,
2013-08-19 17:55:00,74.9,68.7,29.99,SW,236,0.0,0.0,81,0.00,,,0.40,Wunderground v.1.15,2013-08-19 21:55:00,
2013-08-19 18:06:00,74.8,68.6,29.99,SW,236,0.0,5.0,81,0.00,,,0.40,Wunderground v.1.15,2013-08-19 22:06:00,
2013-08-19 18:15:00,74.8,68.6,29.99,SW,236,0.0,5.0,81,0.00,,,0.40,Wunderground v.1.15,2013-08-19 22:15:00,
2013-08-19 18:20:00,74.5,68.3,29.99,SW,236,0.0,5.0,81,0.00,,,0.40,Wunderground v.1.15,2013-08-19 22:20:00,
2013-08-19 18:30:00,74.1,69.0,29.98,SW,236,0.0,5.0,84,0.00,,,0.40,Wunderground v.1.15,2013-08-19 22:30:00,
2013-08-19 18:36:00,74.0,69.2,29.98,SW,236,0.0,5.0,85,0.00,,,0.40,Wunderground v.1.15,2013-08-19 22:36:00,
2013-08-19 18:45:00,73.7,68.6,29.98,SW,236,0.0,5.0,84,0.00,,,0.40,Wunderground v.1.15,2013-08-19 22:45:00,
2013-08-19 18:56:00,73.5,68.7,29.98,SW,236,0.0,5.0,85,0.00,,,0.40,Wunderground v.1.15,2013-08-19 22:56:00,
2013-08-19 19:01:00,73.5,69.1,29.98,SW,236,0.0,5.0,86,0.00,,,0.40,Wunderground v.1.15,2013-08-19 23:01:00,
2013-08-19 19:10:00,73.4,69.6,29.98,SW,236,0.0,5.0,88,0.00,,,0.40,Wunderground v.1.15,2013-08-19 23:10:00,
2013-08-19 19:21:00,73.4,69.6,29.99,SW,236,0.0,5.0,88,0.00,,,0.40,Wunderground v.1.15,2013-08-19 23:21:00,
2013-08-19 19:30:00,73.0,69.2,29.99,SW,236,0.0,5.0,88,0.00,,,0.40,Wunderground v.1.15,2013-08-19 23:30:00,
2013-08-19 19:40:00,72.8,69.4,29.99,SW,236,0.0,5.0,89,0.00,,,0.40,Wunderground v.1.15,2013-08-19 23:40:00,
2013-08-19 19:46:00,72.6,69.5,30.00,SW,236,0.0,5.0,90,0.00,,,0.40,Wunderground v.1.15,2013-08-19 23:46:00,
2013-08-19 19:55:00,72.2,69.1,30.00,SW,236,0.0,5.0,90,0.00,,,0.40,Wunderground v.1.15,2013-08-19 23:55:00,
2013-08-19 20:06:00,71.8,68.7,30.00,SW,236,0.0,5.0,90,0.00,,,0.40,Wunderground v.1.15,2013-08-20 00:06:00,
2013-08-19 20:15:00,71.4,68.3,30.00,SW,236,0.0,5.0,90,0.00,,,0.40,Wunderground v.1.15,2013-08-20 00:15:00,
2013-08-19 20:26:00,71.3,68.9,30.00,SW,236,0.0,5.0,92,0.00,,,0.40,Wunderground v.1.15,2013-08-20 00:26:00,
2013-08-19 20:35:00,70.8,68.0,30.00,SW,236,0.0,5.0,91,0.00,,,0.40,Wunderground v.1.15,2013-08-20 00:35:00,
2013-08-19 20:46:00,70.4,68.0,30.00,SW,236,0.0,5.0,92,0.00,,,0.40,Wunderground v.1.15,2013-08-20 00:46:00,
2013-08-19 20:55:00,70.2,68.1,30.00,SW,236,0.0,5.0,93,0.00,,,0.40,Wunderground v.1.15,2013-08-20 00:55:00,
2013-08-19 21:05:00,69.8,67.7,30.01,SW,236,0.0,5.0,93,0.00,,,0.40,Wunderground v.1.15,2013-08-20 01:05:00,
2013-08-19 21:11:00,69.6,67.5,30.00,SW,236,0.0,5.0,93,0.00,,,0.40,Wunderground v.1.15,2013-08-20 01:11:00,
2013-08-19 21:20:00,69.5,67.7,30.01,SW,236,0.0,5.0,94,0.00,,,0.40,Wunderground v.1.15,2013-08-20 01:20:00,
2013-08-19 21:31:00,69.2,67.4,30.01,SW,236,0.0,5.0,94,0.00,,,0.40,Wunderground v.1.15,2013-08-20 01:31:00,
2013-08-19 21:40:00,68.9,67.1,30.02,SW,236,0.0,5.0,94,0.00,,,0.40,Wunderground v.1.15,2013-08-20 01:40:00,
2013-08-19 21:51:00,68.8,67.0,30.02,SW,236,0.0,5.0,94,0.00,,,0.40,Wunderground v.1.15,2013-08-20 01:51:00,
2013-08-19 22:01:00,68.5,66.7,30.02,SW,236,0.0,5.0,94,0.00,,,0.40,Wunderground v.1.15,2013-08-20 02:01:00,
2013-08-19 22:11:00,68.6,67.1,30.02,SW,236,0.0,5.0,95,0.00,,,0.40,Wunderground v.1.15,2013-08-20 02:11:00,
2013-08-19 22:21:00,68.6,67.1,30.02,SW,236,0.0,5.0,95,0.00,,,0.40,Wunderground v.1.15,2013-08-20 02:21:00,
2013-08-19 22:30:00,68.5,67.0,30.02,SW,236,0.0,5.0,95,0.00,,,0.40,Wunderground v.1.15,2013-08-20 02:30:00,
2013-08-19 22:36:00,68.3,66.8,30.02,SW,236,0.0,5.0,95,0.00,,,0.40,Wunderground v.1.15,2013-08-20 02:36:00,
2013-08-19 22:45:00,68.1,66.6,30.02,SW,236,0.0,5.0,95,0.00,,,0.40,Wunderground v.1.15,2013-08-20 02:45:00,
2013-08-19 22:56:00,68.0,66.5,30.02,SW,236,0.0,5.0,95,0.00,,,0.40,Wunderground v.1.15,2013-08-20 02:56:00,
2013-08-19 23:05:00,67.9,66.4,30.03,SW,236,0.0,5.0,95,0.00,,,0.40,Wunderground v.1.15,2013-08-20 03:05:00,
2013-08-19 23:16:00,67.7,66.2,30.02,SW,236,0.0,5.0,95,0.00,,,0.40,Wunderground v.1.15,2013-08-20 03:16:00,
2013-08-19 23:26:00,67.6,66.1,30.03,SW,236,0.0,5.0,95,0.00,,,0.40,Wunderground v.1.15,2013-08-20 03:26:00,
2013-08-19 23:36:00,67.4,65.9,30.03,SW,236,0.0,5.0,95,0.00,,,0.40,Wunderground v.1.15,2013-08-20 03:36:00,
2013-08-19 23:46:00,67.4,65.9,30.03,SW,236,0.0,5.0,95,0.00,,,0.40,Wunderground v.1.15,2013-08-20 03:46:00,
2013-08-19 23:55:00,67.2,66.0,30.03,SW,236,0.0,5.0,96,0.00,,,0.40,Wunderground v.1.15,2013-08-20 03:55:00,